Time;durP1;ratioP1;P1;durP2;ratioP2;P2;SDS_P1;SDS_P2;PMS_P1;PMS_P2;Temp;Humidity;BMP_temperature;BMP_pressure;BME280_temperature;BME280_humidity;BME280_pressure;Samples;Min_cycle;Max_cycle;Signal;HPM_P1;HPM_P2
2022/07/12 00:00:50;;;;;;;3.83;2.70;;;;;;;;;;4895531;29;20033;-61
2022/07/12 00:03:15;;;;;;;3.67;2.72;;;;;;;;;;4884868;29;20403;-61
2022/07/12 00:05:41;;;;;;;3.90;3.00;;;;;;;;;;4875336;29;20096;-62
2022/07/12 00:08:06;;;;;;;3.80;2.80;;;;;;;;;;4876916;29;20040;-62
2022/07/12 00:10:32;;;;;;;3.40;2.60;;;;;;;;;;4876878;29;20458;-62
2022/07/12 00:12:58;;;;;;;4.55;2.53;;;;;;;;;;4864774;29;20119;-61
2022/07/12 00:15:23;;;;;;;3.00;2.70;;;;;;;;;;4877292;29;20465;-61
2022/07/12 00:17:49;;;;;;;2.83;2.40;;;;;;;;;;4875383;29;20089;-61
2022/07/12 00:20:14;;;;;;;3.42;2.70;;;;;;;;;;4882918;29;20125;-61
2022/07/12 00:22:40;;;;;;;4.25;2.60;;;;;;;;;;4875069;29;20028;-62
2022/07/12 00:25:06;;;;;;;3.38;2.65;;;;;;;;;;4877707;29;20033;-61
2022/07/12 00:27:32;;;;;;;3.05;2.70;;;;;;;;;;4874781;29;20051;-61
2022/07/12 00:29:57;;;;;;;3.00;2.67;;;;;;;;;;4878309;29;20041;-61
2022/07/12 00:32:23;;;;;;;3.05;2.75;;;;;;;;;;4880984;29;20040;-61
2022/07/12 00:34:48;;;;;;;3.58;2.53;;;;;;;;;;4898733;29;20075;-60
2022/07/12 00:37:13;;;;;;;4.07;2.60;;;;;;;;;;4880374;29;20426;-61
2022/07/12 00:39:39;;;;;;;3.60;3.15;;;;;;;;;;4880180;29;20093;-60
2022/07/12 00:42:04;;;;;;;5.10;3.05;;;;;;;;;;4880778;29;20093;-60
2022/07/12 00:44:30;;;;;;;4.18;3.33;;;;;;;;;;4895591;29;20040;-61
2022/07/12 00:46:57;;;;;;;4.22;3.08;;;;;;;;;;4878031;29;20121;-61
2022/07/12 00:49:24;;;;;;;5.18;3.13;;;;;;;;;;4879808;29;20065;-60
2022/07/12 00:51:50;;;;;;;4.00;3.25;;;;;;;;;;4882129;29;20041;-62
2022/07/12 00:54:16;;;;;;;4.50;3.10;;;;;;;;;;4878561;29;20390;-61
2022/07/12 00:56:42;;;;;;;3.60;2.97;;;;;;;;;;4886983;29;20033;-62
2022/07/12 00:59:08;;;;;;;3.90;3.25;;;;;;;;;;4879777;29;20293;-61
2022/07/12 01:01:33;;;;;;;5.75;3.40;;;;;;;;;;4879441;29;20530;-61
2022/07/12 01:04:00;;;;;;;3.95;3.20;;;;;;;;;;4878549;29;20093;-61
2022/07/12 01:06:25;;;;;;;3.90;3.30;;;;;;;;;;4880314;29;20387;-61
2022/07/12 01:08:51;;;;;;;4.40;3.50;;;;;;;;;;4877601;29;20040;-61
2022/07/12 01:11:16;;;;;;;3.97;3.45;;;;;;;;;;4889273;29;20040;-61
2022/07/12 01:13:43;;;;;;;4.90;3.60;;;;;;;;;;4894605;29;20120;-61
2022/07/12 01:16:10;;;;;;;5.75;3.67;;;;;;;;;;4898684;29;20394;-61
2022/07/12 01:18:37;;;;;;;4.20;3.80;;;;;;;;;;4882817;29;20062;-61
2022/07/12 01:21:07;;;;;;;5.07;3.65;;;;;;;;;;4875565;29;20033;-61
2022/07/12 01:23:34;;;;;;;4.17;3.60;;;;;;;;;;4881736;29;20108;-60
2022/07/12 01:26:00;;;;;;;5.07;4.30;;;;;;;;;;4898061;29;20766;-62
2022/07/12 01:28:25;;;;;;;4.95;4.30;;;;;;;;;;4882446;29;20092;-61
2022/07/12 01:30:51;;;;;;;5.15;4.00;;;;;;;;;;4877013;29;20471;-61
2022/07/12 01:33:16;;;;;;;5.60;4.18;;;;;;;;;;4877289;29;20025;-61
2022/07/12 01:35:43;;;;;;;4.90;4.10;;;;;;;;;;4883300;29;20162;-60
2022/07/12 01:38:08;;;;;;;5.32;3.80;;;;;;;;;;4881693;29;20103;-60
2022/07/12 01:40:35;;;;;;;6.70;4.40;;;;;;;;;;4898586;29;20489;-60
2022/07/12 01:43:02;;;;;;;7.63;4.75;;;;;;;;;;4875522;29;20087;-60
2022/07/12 01:45:27;;;;;;;6.15;5.15;;;;;;;;;;4885752;29;20033;-60
2022/07/12 01:47:53;;;;;;;6.10;5.10;;;;;;;;;;4879614;29;20629;-60
2022/07/12 01:50:18;;;;;;;6.90;5.47;;;;;;;;;;4878330;29;20037;-61
2022/07/12 01:52:44;;;;;;;8.93;6.88;;;;;;;;;;4875923;29;20057;-61
2022/07/12 01:55:10;;;;;;;9.45;6.65;;;;;;;;;;4879439;29;20093;-60
2022/07/12 01:57:37;;;;;;;8.27;6.38;;;;;;;;;;4877869;29;20040;-62
2022/07/12 02:00:06;;;;;;;7.18;5.93;;;;;;;;;;4879106;29;20072;-61
2022/07/12 02:02:32;;;;;;;7.88;5.70;;;;;;;;;;4894707;29;20039;-61
2022/07/12 02:05:00;;;;;;;8.45;6.13;;;;;;;;;;4878384;29;20033;-61
2022/07/12 02:07:25;;;;;;;10.52;6.47;;;;;;;;;;4881325;29;20037;-60
2022/07/12 02:09:51;;;;;;;9.65;6.35;;;;;;;;;;4877544;29;20040;-61
2022/07/12 02:12:17;;;;;;;9.57;7.05;;;;;;;;;;4880733;29;20041;-61
2022/07/12 02:14:42;;;;;;;9.70;7.00;;;;;;;;;;4877863;29;20463;-61
2022/07/12 02:17:07;;;;;;;10.50;7.90;;;;;;;;;;4875818;29;20040;-61
2022/07/12 02:19:33;;;;;;;12.25;7.75;;;;;;;;;;4878916;29;20041;-60
2022/07/12 02:21:58;;;;;;;8.50;7.60;;;;;;;;;;4874846;29;21861;-61
2022/07/12 02:24:24;;;;;;;8.57;7.47;;;;;;;;;;4877210;29;20418;-61
2022/07/12 02:26:49;;;;;;;10.57;7.63;;;;;;;;;;4878760;29;20041;-62
2022/07/12 02:29:15;;;;;;;10.38;6.97;;;;;;;;;;4879356;29;20472;-61
2022/07/12 02:31:40;;;;;;;11.00;7.20;;;;;;;;;;4877846;29;20450;-61
2022/07/12 02:34:06;;;;;;;10.00;7.20;;;;;;;;;;4880230;29;20429;-61
2022/07/12 02:36:31;;;;;;;10.27;7.28;;;;;;;;;;4898064;29;20510;-61
2022/07/12 02:38:57;;;;;;;11.30;7.18;;;;;;;;;;4879759;29;20041;-60
2022/07/12 02:41:22;;;;;;;11.43;7.38;;;;;;;;;;4897446;29;20033;-61
2022/07/12 02:43:48;;;;;;;9.57;7.10;;;;;;;;;;4892793;29;20079;-61
2022/07/12 02:46:13;;;;;;;8.43;6.38;;;;;;;;;;4877822;29;20457;-60
2022/07/12 02:48:41;;;;;;;10.68;6.15;;;;;;;;;;4885879;29;20127;-62
2022/07/12 02:51:07;;;;;;;9.10;7.07;;;;;;;;;;4883747;29;20068;-61
2022/07/12 02:53:34;;;;;;;9.05;6.72;;;;;;;;;;4874672;29;20164;-60
2022/07/12 02:55:59;;;;;;;9.48;6.95;;;;;;;;;;4876563;29;20037;-61
2022/07/12 02:58:25;;;;;;;12.50;6.55;;;;;;;;;;4875607;29;20086;-61
2022/07/12 03:00:50;;;;;;;10.10;6.47;;;;;;;;;;4889688;29;20033;-62
2022/07/12 03:03:16;;;;;;;10.98;6.35;;;;;;;;;;4881863;29;20041;-61
2022/07/12 03:05:42;;;;;;;11.38;7.30;;;;;;;;;;4890296;29;20111;-61
2022/07/12 03:08:09;;;;;;;11.65;7.90;;;;;;;;;;4876650;29;20044;-62
2022/07/12 03:10:35;;;;;;;10.65;7.57;;;;;;;;;;4875875;29;20040;-61
2022/07/12 03:13:01;;;;;;;12.15;8.70;;;;;;;;;;4877410;29;20048;-64
2022/07/12 03:15:27;;;;;;;14.02;9.15;;;;;;;;;;4887324;29;20458;-62
2022/07/12 03:17:53;;;;;;;10.93;7.45;;;;;;;;;;4895667;29;20462;-61
2022/07/12 03:20:19;;;;;;;12.30;9.00;;;;;;;;;;4889278;29;20029;-61
2022/07/12 03:22:49;;;;;;;12.63;7.40;;;;;;;;;;4877591;29;20123;-61
2022/07/12 03:25:16;;;;;;;8.63;7.15;;;;;;;;;;4887362;29;20470;-61
2022/07/12 03:27:42;;;;;;;15.43;8.30;;;;;;;;;;4878473;29;20048;-61
2022/07/12 03:30:08;;;;;;;10.50;8.32;;;;;;;;;;4875681;29;21066;-61
2022/07/12 03:32:34;;;;;;;13.13;7.82;;;;;;;;;;4884357;29;20033;-60
2022/07/12 03:34:59;;;;;;;13.27;8.82;;;;;;;;;;4878330;29;20048;-61
2022/07/12 03:37:25;;;;;;;11.15;7.57;;;;;;;;;;4880216;29;20377;-62
2022/07/12 03:39:50;;;;;;;10.32;6.95;;;;;;;;;;4879331;29;20040;-62
2022/07/12 03:42:16;;;;;;;9.55;7.82;;;;;;;;;;4874848;29;20120;-63
2022/07/12 03:44:41;;;;;;;10.85;8.18;;;;;;;;;;4861134;29;20196;-63
2022/07/12 03:47:07;;;;;;;14.02;8.10;;;;;;;;;;4875228;29;20064;-63
2022/07/12 03:49:32;;;;;;;8.25;6.38;;;;;;;;;;4877772;29;20039;-64
2022/07/12 03:51:57;;;;;;;12.85;6.60;;;;;;;;;;4875350;29;20041;-64
2022/07/12 03:54:23;;;;;;;8.68;6.10;;;;;;;;;;4877990;29;20036;-63
2022/07/12 03:59:32;;;;;;;8.77;6.18;;;;;;;;;;4875898;29;20047;-63
2022/07/12 04:01:58;;;;;;;9.38;7.55;;;;;;;;;;4877003;29;20378;-62
2022/07/12 04:04:23;;;;;;;8.90;7.65;;;;;;;;;;4876742;29;20037;-63
2022/07/12 04:06:49;;;;;;;9.95;7.88;;;;;;;;;;4879947;29;20052;-62
2022/07/12 04:09:14;;;;;;;9.23;6.70;;;;;;;;;;4880276;29;20039;-63
2022/07/12 04:11:40;;;;;;;9.85;7.05;;;;;;;;;;4881544;29;20439;-62
2022/07/12 04:14:05;;;;;;;8.38;7.10;;;;;;;;;;4879744;29;20049;-64
2022/07/12 04:16:31;;;;;;;8.90;7.18;;;;;;;;;;4881677;29;20530;-63
2022/07/12 04:18:56;;;;;;;10.10;7.95;;;;;;;;;;4880286;29;20036;-62
2022/07/12 04:21:22;;;;;;;10.07;7.50;;;;;;;;;;4879658;29;20135;-62
2022/07/12 04:23:47;;;;;;;11.43;8.98;;;;;;;;;;4864353;29;20040;-63
2022/07/12 04:26:13;;;;;;;13.35;8.82;;;;;;;;;;4880672;29;20456;-63
2022/07/12 04:28:39;;;;;;;11.55;9.45;;;;;;;;;;4880150;29;20124;-63
2022/07/12 04:31:06;;;;;;;15.52;10.75;;;;;;;;;;4878197;29;20045;-64
2022/07/12 04:33:32;;;;;;;11.93;9.30;;;;;;;;;;4880661;29;20037;-64
2022/07/12 04:35:57;;;;;;;13.10;10.05;;;;;;;;;;4879381;29;20045;-63
2022/07/12 04:38:22;;;;;;;13.75;9.70;;;;;;;;;;4880658;29;20037;-64
2022/07/12 04:40:48;;;;;;;13.05;9.80;;;;;;;;;;4880699;29;20105;-62
2022/07/12 04:43:13;;;;;;;12.32;10.15;;;;;;;;;;4880179;29;20033;-64
2022/07/12 04:45:38;;;;;;;11.82;9.65;;;;;;;;;;4880044;29;20394;-63
2022/07/12 04:48:04;;;;;;;14.07;10.45;;;;;;;;;;4880234;29;20076;-64
2022/07/12 04:50:30;;;;;;;19.17;11.23;;;;;;;;;;4880889;29;20107;-63
2022/07/12 04:52:55;;;;;;;13.40;10.65;;;;;;;;;;4879433;29;20101;-64
2022/07/12 04:55:20;;;;;;;14.70;10.50;;;;;;;;;;4880927;29;20036;-63
2022/07/12 04:57:46;;;;;;;13.45;9.90;;;;;;;;;;4880294;29;20087;-63
2022/07/12 05:00:11;;;;;;;13.70;9.75;;;;;;;;;;4879359;29;20040;-63
2022/07/12 05:02:37;;;;;;;14.63;10.52;;;;;;;;;;4879221;29;20025;-63
2022/07/12 05:05:03;;;;;;;16.00;10.43;;;;;;;;;;4879918;29;20044;-63
2022/07/12 05:07:28;;;;;;;13.52;11.02;;;;;;;;;;4879821;29;20025;-63
2022/07/12 05:09:54;;;;;;;14.82;11.82;;;;;;;;;;4879029;29;20128;-62
2022/07/12 05:12:19;;;;;;;16.90;12.00;;;;;;;;;;4880471;29;20411;-62
2022/07/12 05:14:45;;;;;;;16.38;13.10;;;;;;;;;;4878383;29;20029;-62
2022/07/12 05:17:11;;;;;;;15.15;13.00;;;;;;;;;;4879851;29;20029;-63
2022/07/12 05:19:39;;;;;;;15.35;12.70;;;;;;;;;;4880332;29;20037;-62
2022/07/12 05:22:04;;;;;;;16.33;12.52;;;;;;;;;;4878395;29;20502;-62
2022/07/12 05:24:30;;;;;;;16.13;12.35;;;;;;;;;;4880388;29;20040;-63
2022/07/12 05:26:55;;;;;;;13.65;11.75;;;;;;;;;;4878361;29;20033;-63
2022/07/12 05:29:21;;;;;;;13.30;11.63;;;;;;;;;;4879363;29;20028;-63
2022/07/12 05:31:46;;;;;;;13.65;11.45;;;;;;;;;;4880139;29;20076;-63
2022/07/12 05:34:12;;;;;;;13.73;11.20;;;;;;;;;;4877855;29;20033;-63
2022/07/12 05:36:37;;;;;;;13.90;11.10;;;;;;;;;;4880057;29;20485;-63
2022/07/12 05:39:03;;;;;;;13.70;11.10;;;;;;;;;;4878526;29;20538;-63
2022/07/12 05:41:28;;;;;;;16.20;11.77;;;;;;;;;;4880087;29;20120;-62
2022/07/12 05:43:54;;;;;;;16.05;11.18;;;;;;;;;;4878408;29;20482;-63
2022/07/12 05:46:19;;;;;;;14.77;11.27;;;;;;;;;;4879762;29;20042;-62
2022/07/12 05:48:44;;;;;;;15.73;11.75;;;;;;;;;;4878105;29;20044;-63
2022/07/12 05:53:54;;;;;;;15.85;12.63;;;;;;;;;;4879438;29;20135;-63
2022/07/12 05:56:20;;;;;;;22.88;14.73;;;;;;;;;;4879221;29;20116;-62
2022/07/12 05:58:45;;;;;;;26.98;17.67;;;;;;;;;;4878849;29;20045;-63
2022/07/12 06:01:11;;;;;;;28.60;17.30;;;;;;;;;;4878632;29;20121;-62
2022/07/12 06:03:36;;;;;;;22.73;15.88;;;;;;;;;;4878899;29;20045;-62
2022/07/12 06:06:02;;;;;;;27.55;18.52;;;;;;;;;;4847926;29;20149;-62
2022/07/12 06:08:27;;;;;;;36.30;18.92;;;;;;;;;;4853176;29;20466;-63
2022/07/12 06:10:53;;;;;;;28.17;18.25;;;;;;;;;;4862143;29;20603;-61
2022/07/12 06:13:18;;;;;;;25.65;18.05;;;;;;;;;;4878424;29;20486;-63
2022/07/12 06:15:44;;;;;;;25.92;17.73;;;;;;;;;;4877859;29;20033;-62
2022/07/12 06:18:09;;;;;;;27.35;17.85;;;;;;;;;;4878659;29;20032;-63
2022/07/12 06:20:35;;;;;;;23.58;17.23;;;;;;;;;;4878089;29;20489;-63
2022/07/12 06:23:00;;;;;;;23.38;17.00;;;;;;;;;;4876392;29;20092;-62
2022/07/12 06:25:26;;;;;;;24.73;16.42;;;;;;;;;;4878686;29;20040;-63
2022/07/12 06:27:51;;;;;;;22.08;15.98;;;;;;;;;;4878640;29;20097;-62
2022/07/12 06:30:21;;;;;;;20.52;15.85;;;;;;;;;;4878412;29;20517;-62
2022/07/12 06:32:48;;;;;;;18.25;14.43;;;;;;;;;;4877963;29;20045;-62
2022/07/12 06:35:14;;;;;;;17.75;14.43;;;;;;;;;;4876627;29;20033;-62
2022/07/12 06:37:41;;;;;;;16.98;14.43;;;;;;;;;;4878433;29;20093;-62
2022/07/12 06:40:07;;;;;;;18.27;14.48;;;;;;;;;;4878315;29;20478;-62
2022/07/12 06:42:33;;;;;;;17.25;13.45;;;;;;;;;;4877605;29;20120;-62
2022/07/12 06:44:58;;;;;;;21.27;13.20;;;;;;;;;;4877661;29;20515;-62
2022/07/12 06:47:24;;;;;;;15.48;12.68;;;;;;;;;;4877292;29;20595;-63
2022/07/12 06:49:49;;;;;;;14.25;12.20;;;;;;;;;;4878893;29;20035;-62
2022/07/12 06:52:15;;;;;;;14.05;11.43;;;;;;;;;;4876961;29;20072;-63
2022/07/12 06:54:40;;;;;;;13.35;11.75;;;;;;;;;;4877695;29;20063;-62
2022/07/12 06:57:06;;;;;;;14.52;11.75;;;;;;;;;;4878031;29;20029;-62
2022/07/12 06:59:31;;;;;;;14.35;10.90;;;;;;;;;;4877657;29;20048;-62
2022/07/12 07:01:57;;;;;;;13.15;10.75;;;;;;;;;;4876810;29;20045;-62
2022/07/12 07:04:23;;;;;;;12.48;10.38;;;;;;;;;;4876088;29;20047;-63
2022/07/12 07:06:48;;;;;;;12.95;10.43;;;;;;;;;;4876799;29;20037;-63
2022/07/12 07:09:14;;;;;;;13.20;9.25;;;;;;;;;;4875553;29;20060;-63
2022/07/12 07:11:40;;;;;;;10.65;8.63;;;;;;;;;;4875950;29;20033;-63
2022/07/12 07:14:06;;;;;;;8.90;7.90;;;;;;;;;;4877712;29;20382;-63
2022/07/12 07:16:31;;;;;;;9.68;7.82;;;;;;;;;;4878316;29;20033;-63
2022/07/12 07:18:56;;;;;;;10.88;8.10;;;;;;;;;;4874300;29;20029;-62
2022/07/12 07:21:22;;;;;;;11.23;8.10;;;;;;;;;;4874710;29;20528;-62
2022/07/12 07:23:47;;;;;;;7.93;6.70;;;;;;;;;;4877268;29;20044;-62
2022/07/12 07:26:13;;;;;;;9.30;7.18;;;;;;;;;;4877200;29;20505;-62
2022/07/12 07:30:52;;;;;;;9.23;6.88;;;;;;;;;;4876563;29;20455;-62
2022/07/12 07:31:23;;;;;;;9.63;6.72;;;;;;;;;;4877367;29;20040;-62
2022/07/12 07:33:49;;;;;;;12.00;6.10;;;;;;;;;;4877747;29;20093;-62
2022/07/12 07:36:14;;;;;;;8.00;5.70;;;;;;;;;;4875606;29;20123;-63
2022/07/12 07:38:40;;;;;;;11.98;6.45;;;;;;;;;;4876986;29;20033;-62
2022/07/12 07:41:06;;;;;;;6.55;5.78;;;;;;;;;;4877214;29;20044;-62
2022/07/12 07:43:31;;;;;;;8.45;6.22;;;;;;;;;;4877009;29;20116;-62
2022/07/12 07:45:57;;;;;;;7.65;5.72;;;;;;;;;;4877352;29;20367;-62
2022/07/12 07:48:22;;;;;;;6.18;5.30;;;;;;;;;;4876431;29;20537;-62
2022/07/12 07:50:47;;;;;;;6.85;5.75;;;;;;;;;;4878246;29;20081;-62
2022/07/12 07:53:14;;;;;;;8.15;5.53;;;;;;;;;;4875515;29;20068;-63
2022/07/12 07:55:39;;;;;;;6.55;5.20;;;;;;;;;;4876540;29;20032;-63
2022/07/12 07:58:05;;;;;;;9.43;5.00;;;;;;;;;;4876402;29;20040;-62
2022/07/12 08:00:30;;;;;;;6.70;4.70;;;;;;;;;;4877974;29;20029;-63
2022/07/12 08:02:56;;;;;;;7.72;4.95;;;;;;;;;;4877919;29;20048;-63
2022/07/12 08:05:21;;;;;;;5.47;4.75;;;;;;;;;;4875363;29;20060;-63
2022/07/12 08:07:47;;;;;;;6.25;5.18;;;;;;;;;;4876965;29;20044;-63
2022/07/12 08:10:12;;;;;;;5.50;4.60;;;;;;;;;;4875700;29;20503;-63
2022/07/12 08:12:37;;;;;;;7.60;4.43;;;;;;;;;;4877862;29;20041;-63
2022/07/12 08:15:03;;;;;;;5.30;4.22;;;;;;;;;;4876909;29;20045;-63
2022/07/12 08:17:29;;;;;;;8.23;4.75;;;;;;;;;;4877608;29;20041;-63
2022/07/12 08:19:55;;;;;;;7.18;4.60;;;;;;;;;;4877869;29;20032;-63
2022/07/12 08:22:20;;;;;;;5.50;4.20;;;;;;;;;;4875767;29;20704;-63
2022/07/12 08:24:46;;;;;;;5.85;4.47;;;;;;;;;;4877515;29;20079;-62
2022/07/12 08:27:11;;;;;;;6.07;4.30;;;;;;;;;;4875766;29;20041;-63
2022/07/12 08:29:36;;;;;;;7.22;3.90;;;;;;;;;;4877601;29;20085;-62
2022/07/12 08:32:02;;;;;;;6.65;3.97;;;;;;;;;;4877188;29;20394;-63
2022/07/12 08:34:28;;;;;;;4.93;3.58;;;;;;;;;;4876758;29;20041;-63
2022/07/12 08:36:53;;;;;;;5.40;3.80;;;;;;;;;;4877700;29;20036;-63
2022/07/12 08:39:19;;;;;;;6.05;4.20;;;;;;;;;;4875642;29;20040;-63
2022/07/12 08:41:44;;;;;;;6.22;4.45;;;;;;;;;;4875109;29;20037;-63
2022/07/12 08:44:10;;;;;;;5.28;4.20;;;;;;;;;;4876541;29;20111;-63
2022/07/12 08:46:35;;;;;;;5.35;3.45;;;;;;;;;;4877246;29;20037;-62
2022/07/12 08:49:09;;;;;;;4.70;3.30;;;;;;;;;;4875378;29;20202;-63
2022/07/12 08:51:34;;;;;;;5.38;3.30;;;;;;;;;;4879584;29;20367;-63
2022/07/12 08:54:16;;;;;;;4.45;2.55;;;;;;;;;;4879873;29;20148;-63
2022/07/12 08:56:42;;;;;;;3.13;2.47;;;;;;;;;;4864045;29;20060;-62
2022/07/12 08:59:26;;;;;;;3.60;2.40;;;;;;;;;;4878275;29;20041;-63
2022/07/12 09:01:54;;;;;;;3.55;2.40;;;;;;;;;;4879730;29;20402;-63
2022/07/12 09:04:24;;;;;;;3.30;2.60;;;;;;;;;;4877774;29;20049;-62
2022/07/12 09:06:50;;;;;;;5.05;2.40;;;;;;;;;;4880752;29;20037;-63
2022/07/12 09:09:27;;;;;;;4.65;2.20;;;;;;;;;;4879941;29;20089;-63
2022/07/12 09:11:53;;;;;;;4.45;2.40;;;;;;;;;;4879607;29;20089;-63
2022/07/12 09:14:19;;;;;;;3.53;2.40;;;;;;;;;;4878313;29;20033;-62
2022/07/12 09:16:58;;;;;;;3.22;2.25;;;;;;;;;;4880506;29;20128;-62
2022/07/12 09:19:23;;;;;;;4.13;2.08;;;;;;;;;;4879661;29;20055;-63
2022/07/12 09:21:51;;;;;;;4.28;2.17;;;;;;;;;;4877910;29;20036;-63
2022/07/12 09:24:17;;;;;;;4.95;2.00;;;;;;;;;;4877862;29;20055;-63
2022/07/12 09:26:43;;;;;;;3.28;1.80;;;;;;;;;;4879501;29;20037;-63
2022/07/12 09:29:10;;;;;;;4.00;1.63;;;;;;;;;;4878239;29;20534;-64
2022/07/12 09:37:11;;;;;;;3.78;2.10;;;;;;;;;;4879535;29;20459;-63
2022/07/12 09:39:37;;;;;;;1.50;1.30;;;;;;;;;;4880196;29;20025;-63
2022/07/12 09:42:17;;;;;;;1.92;1.10;;;;;;;;;;4878978;29;20033;-63
2022/07/12 09:44:43;;;;;;;2.47;1.50;;;;;;;;;;4879387;29;20045;-64
2022/07/12 09:47:15;;;;;;;2.88;1.40;;;;;;;;;;4878299;29;20041;-64
2022/07/12 09:49:41;;;;;;;1.40;1.15;;;;;;;;;;4880059;29;20566;-64
2022/07/12 09:52:11;;;;;;;1.42;1.20;;;;;;;;;;4878948;29;20480;-63
2022/07/12 09:54:40;;;;;;;1.70;1.27;;;;;;;;;;4878848;29;20048;-63
2022/07/12 09:57:15;;;;;;;1.38;1.20;;;;;;;;;;4879992;29;20044;-63
2022/07/12 09:59:41;;;;;;;1.10;1.00;;;;;;;;;;4879146;29;20032;-63
2022/07/12 10:02:07;;;;;;;2.30;1.20;;;;;;;;;;4877888;29;20036;-63
2022/07/12 10:04:32;;;;;;;1.60;1.10;;;;;;;;;;4876888;29;20041;-63
2022/07/12 10:06:58;;;;;;;1.90;1.45;;;;;;;;;;4879755;29;20398;-63
2022/07/12 10:09:25;;;;;;;2.75;1.30;;;;;;;;;;4878975;29;20029;-63
2022/07/12 10:11:52;;;;;;;1.77;1.30;;;;;;;;;;4879647;29;20037;-64
2022/07/12 10:14:18;;;;;;;2.10;1.08;;;;;;;;;;4877582;29;20072;-63
2022/07/12 10:16:45;;;;;;;1.90;1.08;;;;;;;;;;4877348;29;20394;-64
2022/07/12 10:19:32;;;;;;;1.58;1.20;;;;;;;;;;4877660;29;20041;-64
2022/07/12 10:22:02;;;;;;;4.22;1.40;;;;;;;;;;4878852;29;20037;-63
2022/07/12 10:24:33;;;;;;;1.63;1.20;;;;;;;;;;4878383;29;20048;-64
2022/07/12 10:27:13;;;;;;;1.75;1.13;;;;;;;;;;4878530;29;20040;-64
2022/07/12 10:29:47;;;;;;;1.30;0.95;;;;;;;;;;4879160;29;20048;-63
2022/07/12 10:32:33;;;;;;;5.15;1.00;;;;;;;;;;4878606;29;20033;-65
2022/07/12 10:35:05;;;;;;;1.83;1.20;;;;;;;;;;4877893;29;20375;-64
2022/07/12 10:37:32;;;;;;;0.90;0.90;;;;;;;;;;4859821;29;20045;-64
2022/07/12 10:40:17;;;;;;;1.80;0.88;;;;;;;;;;4860663;29;20033;-64
2022/07/12 10:43:04;;;;;;;1.30;1.05;;;;;;;;;;4860500;29;20104;-64
2022/07/12 10:45:49;;;;;;;0.73;0.73;;;;;;;;;;4864626;29;20037;-64
2022/07/12 10:48:15;;;;;;;2.05;0.90;;;;;;;;;;4875488;29;20040;-64
2022/07/12 10:50:44;;;;;;;0.75;0.70;;;;;;;;;;4879142;29;20040;-64
2022/07/12 10:53:18;;;;;;;1.73;0.70;;;;;;;;;;4877768;29;20053;-64
2022/07/12 10:56:20;;;;;;;0.80;0.80;;;;;;;;;;4879117;29;20033;-65
2022/07/12 10:58:54;;;;;;;1.25;0.80;;;;;;;;;;4877990;29;20056;-65
2022/07/12 11:01:21;;;;;;;1.55;0.70;;;;;;;;;;4877743;29;20045;-64
2022/07/12 11:03:49;;;;;;;1.00;0.90;;;;;;;;;;4877589;29;20040;-64
2022/07/12 11:06:20;;;;;;;1.58;0.80;;;;;;;;;;4878010;29;20089;-64
2022/07/12 11:09:00;;;;;;;0.82;0.80;;;;;;;;;;4878876;29;20461;-64
2022/07/12 11:11:30;;;;;;;1.73;1.10;;;;;;;;;;4877009;29;20032;-64
2022/07/12 11:13:57;;;;;;;0.80;0.80;;;;;;;;;;4878096;29;20033;-64
2022/07/12 11:16:24;;;;;;;4.88;1.15;;;;;;;;;;4877344;29;20107;-65
2022/07/12 11:18:50;;;;;;;3.03;1.10;;;;;;;;;;4877310;29;20048;-64
2022/07/12 11:21:16;;;;;;;1.02;0.90;;;;;;;;;;4876612;29;20068;-65
2022/07/12 11:23:42;;;;;;;2.95;1.20;;;;;;;;;;4878361;29;20029;-65
2022/07/12 11:26:19;;;;;;;1.75;1.10;;;;;;;;;;4877855;29;20036;-64
2022/07/12 11:28:47;;;;;;;2.72;1.00;;;;;;;;;;4878226;29;20037;-65
2022/07/12 11:31:17;;;;;;;2.47;1.20;;;;;;;;;;4878226;29;20037;-65
2022/07/12 11:33:43;;;;;;;;;;;;;;;;;;4878632;29;20041;-64
2022/07/12 11:36:10;;;;;;;1.40;1.10;;;;;;;;;;4876964;29;19943;-65
2022/07/12 11:38:38;;;;;;;1.60;1.10;;;;;;;;;;4877494;29;20032;-65
2022/07/12 11:41:05;;;;;;;6.50;1.20;;;;;;;;;;4877156;29;20036;-65
2022/07/12 11:43:32;;;;;;;1.50;1.00;;;;;;;;;;4877081;29;20459;-65
2022/07/12 11:45:58;;;;;;;2.20;1.00;;;;;;;;;;4878131;29;20040;-64
2022/07/12 11:48:24;;;;;;;1.40;1.25;;;;;;;;;;4876663;29;20116;-65
2022/07/12 11:50:54;;;;;;;1.98;1.20;;;;;;;;;;4876376;29;20111;-65
2022/07/12 11:53:24;;;;;;;1.60;1.20;;;;;;;;;;4877142;29;20045;-65
2022/07/12 11:55:52;;;;;;;1.58;1.20;;;;;;;;;;4877142;29;20084;-64
2022/07/12 11:58:19;;;;;;;5.63;1.10;;;;;;;;;;4876067;29;20029;-64
2022/07/12 12:00:46;;;;;;;4.43;1.50;;;;;;;;;;4861187;29;20041;-64
2022/07/12 12:03:13;;;;;;;1.85;1.38;;;;;;;;;;4878110;29;20036;-64
2022/07/12 12:06:03;;;;;;;2.60;1.40;;;;;;;;;;4876117;29;20036;-65
2022/07/12 12:08:29;;;;;;;1.50;1.40;;;;;;;;;;4858662;29;20104;-64
2022/07/12 12:10:59;;;;;;;2.13;1.40;;;;;;;;;;4859472;29;20065;-65
2022/07/12 12:13:29;;;;;;;4.15;1.30;;;;;;;;;;4858353;29;20136;-64
2022/07/12 12:15:55;;;;;;;;;;;;;;;;;;4868061;29;20057;-63
2022/07/12 12:18:39;;;;;;;3.13;1.50;;;;;;;;;;4875873;29;20400;-65
2022/07/12 12:21:13;;;;;;;2.15;1.55;;;;;;;;;;4874975;29;20037;-65
2022/07/12 12:23:41;;;;;;;3.58;1.55;;;;;;;;;;4877131;29;20040;-65
2022/07/12 12:26:23;;;;;;;2.63;1.75;;;;;;;;;;4879886;29;20037;-65
2022/07/12 12:29:06;;;;;;;2.63;1.52;;;;;;;;;;4881420;29;20040;-65
2022/07/12 12:31:31;;;;;;;4.28;1.52;;;;;;;;;;4880600;29;20364;-65
2022/07/12 12:33:57;;;;;;;3.90;1.60;;;;;;;;;;4879871;29;20040;-66
2022/07/12 12:36:27;;;;;;;1.75;1.50;;;;;;;;;;4879293;29;20064;-65
2022/07/12 12:39:00;;;;;;;2.63;1.67;;;;;;;;;;4881368;29;20079;-64
2022/07/12 12:41:28;;;;;;;7.90;1.60;;;;;;;;;;4879598;29;20037;-65
2022/07/12 12:44:07;;;;;;;3.83;1.60;;;;;;;;;;4880282;29;20064;-65
2022/07/12 12:46:55;;;;;;;2.03;1.50;;;;;;;;;;4880371;29;20033;-64
2022/07/12 12:49:48;;;;;;;3.90;1.40;;;;;;;;;;4880390;29;20064;-65
2022/07/12 12:52:14;;;;;;;2.22;1.40;;;;;;;;;;4879156;29;20049;-65
2022/07/12 12:54:39;;;;;;;2.92;1.40;;;;;;;;;;4879873;29;20175;-65
2022/07/12 12:57:06;;;;;;;3.28;1.33;;;;;;;;;;4881025;29;20029;-65
2022/07/12 12:59:32;;;;;;;2.97;1.30;;;;;;;;;;4877827;29;20041;-65
2022/07/12 13:01:58;;;;;;;4.75;1.50;;;;;;;;;;4879787;29;20074;-64
2022/07/12 13:04:37;;;;;;;2.97;1.50;;;;;;;;;;4879988;29;20033;-64
2022/07/12 13:07:03;;;;;;;3.30;1.50;;;;;;;;;;4879998;29;20029;-65
2022/07/12 13:09:29;;;;;;;2.42;1.30;;;;;;;;;;4879613;29;20106;-65
2022/07/12 13:11:55;;;;;;;4.43;1.58;;;;;;;;;;4880867;29;20530;-64
2022/07/12 13:14:20;;;;;;;2.60;1.45;;;;;;;;;;4879930;29;20135;-65
2022/07/12 13:16:46;;;;;;;3.70;1.70;;;;;;;;;;4879985;29;20466;-65
2022/07/12 13:19:11;;;;;;;2.42;1.42;;;;;;;;;;4878688;29;20040;-64
2022/07/12 13:21:37;;;;;;;2.88;1.70;;;;;;;;;;4878134;29;20149;-65
2022/07/12 13:24:02;;;;;;;5.20;1.92;;;;;;;;;;4879071;29;20509;-66
2022/07/12 13:26:29;;;;;;;4.13;1.80;;;;;;;;;;4878211;29;20386;-65
2022/07/12 13:28:54;;;;;;;7.07;1.85;;;;;;;;;;4880473;29;20477;-65
2022/07/12 13:31:23;;;;;;;4.35;1.70;;;;;;;;;;4880168;29;20033;-64
2022/07/12 13:33:49;;;;;;;3.03;1.80;;;;;;;;;;4880002;29;20037;-66
2022/07/12 13:36:14;;;;;;;5.82;2.00;;;;;;;;;;4875961;29;20040;-65
2022/07/12 13:38:40;;;;;;;3.95;1.98;;;;;;;;;;4878387;29;20108;-66
2022/07/12 13:41:06;;;;;;;5.28;1.88;;;;;;;;;;4880456;29;20033;-66
2022/07/12 13:43:32;;;;;;;3.35;2.00;;;;;;;;;;4879344;29;20051;-65
2022/07/12 13:45:57;;;;;;;3.08;2.00;;;;;;;;;;4878891;29;20398;-65
2022/07/12 13:48:23;;;;;;;5.65;1.95;;;;;;;;;;4879654;29;20037;-64
2022/07/12 13:50:48;;;;;;;5.55;1.98;;;;;;;;;;4879873;29;20039;-66
2022/07/12 13:53:14;;;;;;;3.92;2.10;;;;;;;;;;4878780;29;20463;-65
2022/07/12 13:55:46;;;;;;;5.75;2.20;;;;;;;;;;4878000;29;20033;-66
2022/07/12 13:58:13;;;;;;;3.60;1.90;;;;;;;;;;4877980;29;20029;-65
2022/07/12 14:00:40;;;;;;;3.83;2.10;;;;;;;;;;4879014;29;20037;-66
2022/07/12 14:03:05;;;;;;;6.22;2.10;;;;;;;;;;4878872;29;20470;-66
2022/07/12 14:05:31;;;;;;;7.78;2.40;;;;;;;;;;4878061;29;20033;-66
2022/07/12 14:07:57;;;;;;;3.45;1.98;;;;;;;;;;4877898;29;20534;-66
2022/07/12 14:10:33;;;;;;;3.28;1.85;;;;;;;;;;4879205;29;20093;-66
2022/07/12 14:12:59;;;;;;;7.47;1.88;;;;;;;;;;4878413;29;20041;-66
2022/07/12 14:15:36;;;;;;;6.70;2.30;;;;;;;;;;4877690;29;20052;-65
2022/07/12 14:18:04;;;;;;;5.78;2.33;;;;;;;;;;4879715;29;20037;-65
2022/07/12 14:20:30;;;;;;;12.00;2.33;;;;;;;;;;4878322;29;20041;-65
2022/07/12 14:22:56;;;;;;;4.25;2.00;;;;;;;;;;4878392;29;20048;-65
2022/07/12 14:25:21;;;;;;;5.32;2.00;;;;;;;;;;4878429;29;20029;-66
2022/07/12 14:27:47;;;;;;;3.70;2.10;;;;;;;;;;4876726;29;20044;-66
2022/07/12 14:30:18;;;;;;;7.65;2.25;;;;;;;;;;4878385;29;20036;-66
2022/07/12 14:32:44;;;;;;;4.75;2.00;;;;;;;;;;4877764;29;20045;-66
2022/07/12 14:35:10;;;;;;;5.50;2.10;;;;;;;;;;4879024;29;20092;-65
2022/07/12 14:37:36;;;;;;;7.90;1.95;;;;;;;;;;4877108;29;20049;-65
2022/07/12 14:40:06;;;;;;;4.68;2.10;;;;;;;;;;4879008;29;20607;-65
2022/07/12 14:42:32;;;;;;;5.15;2.58;;;;;;;;;;4877898;29;20082;-65
2022/07/12 14:44:57;;;;;;;8.13;2.60;;;;;;;;;;4878753;29;20126;-66
2022/07/12 14:47:23;;;;;;;3.35;2.17;;;;;;;;;;4877416;29;20946;-65
2022/07/12 14:49:49;;;;;;;4.28;2.28;;;;;;;;;;4877985;29;20037;-65